Twentynine Palms, CA

10:18 AM PST on February 22, 2018 (GMT -0800)
29 RV | | Change Station
Active Advisory: Wind Advisory

Elev 1804 ft 34.17 °N, 116.04 °W | Updated 1 second ago

Clear
Clear
50.5 °F
Feels Like 50.5 °F
N
0.0
Wind Variable Wind from East

Today
High -- | Low -- °F
--% Chance of Precip.
Yesterday
High -- | Low -- °F
Precip. -- in
Pressure 30.19 in
Visibility 10.0 miles
Clouds Clear
Dew Point 20 °F
Humidity 30%
Rainfall 0.00 in
Snow Depth Not available.
6:21 AM 5:34 PM
Waxing Crescent, 44% visible
METAR KNXP 221756Z AUTO 10005KT 10SM CLR 08/M09 A3021 RMK AO2 SLP221 6//// T00781089 50000
Pressure 30.19 in
Visibility 10.0 miles
Clouds Clear
Dew Point 20 °F
Humidity 30%
Rainfall 0.00 in
Snow Depth Not available.
6:21 AM 5:34 PM
Waxing Crescent, 44% visible
METAR KNXP 221756Z AUTO 10005KT 10SM CLR 08/M09 A3021 RMK AO2 SLP221 6//// T00781089 50000

Get Your Daily Forecast Email!

Thanks for signing up!

Be on the lookout for a verification email in your inbox.

You'll start receiving severe weather alerts in your inbox..

×

10-Day Weather Forecast

Almanac

Astronomy

Feb. 22, 2018 Rise Set
Actual Time
Civil Twilight
Nautical Twilight
Astronomical Twilight
Moon
Length of Visible Light
Length of Day
Tomorrow will be .
, % of the Moon is Illuminated

Today's Extremes

State Highs State Lows

Community

WunderPhotos

Category 6

Welcome to Category 6. This is the collective home for Weather Underground's featured writeups by Dr. Jeff Masters (right), Bob Henson (left), Chris Burt, and other regular contributors.

Nearby

Air Quality

  Air Quality AQ Index Pollutant
Not available.

Snow Depth

Station Depth Elevation

Earthquake Activity

City Distance Mag. Time & Date
Minimum magnitude displayed is 2.5.

Coastal Water Temperatures

Place Temperature

Stations

Nearby Weather Stations

Station Location Temp. Windchill Dew Point Humidity Wind Precip. Elev Updated Type
                   

Watches & Warnings

Wind Advisory
Issued: 9:04 AM MST Feb. 22, 2018 – National Weather Service

... Wind Advisory remains in effect until 10 PM PST /11 PM MST/
this evening...

* timing... winds will increase this morning, peak this
afternoon, then decrease this evening.

* Winds... west to southwest winds gusting 35 to 45 mph, with
gusts to 60 mph possible in the high terrain, including the
Spring Mountains.

* Impacts... strong winds will create hazardous driving
conditions due to gusty Crosswinds and areas of blowing dust,
especially across I-15 in southern Nevada and southeast
California. Temporary fences and structures may be damaged and
loose objects displaced.

Precautionary/preparedness actions...

Check Road and weather conditions before traveling. Motorists,
and especially drivers of high-profile vehicles should be
prepared for strong Crosswinds and areas of reduced visibility.